FLE weather

CLOSED Fort Lee Army Airfield
Fort Lee, Virginia, United States

Public forecast

Using degrees Fahrenheit for public forecast. Weather courtesy of forecast.io.

Closest aviation weather report (METAR) to Fort Lee Army Airfield

Closest report is Dinwiddie County Airport, 9.8 nm (18.2 km) SW. Retrieved 2019/10/15 19:35 UTC (21 minutes ago):

KPTB 151935Z AUTO 10007KT 10SM CLR 24/04 A3007 RMK AO2 T02410042

Closest aviation forecast (TAF) to Fort Lee Army Airfield

Closest forecast is Richmond International Airport, 13.3 nm (24.7 km) N. Retrieved 2019/10/15 18:22 UTC (2 hours ago):

TAF KRIC 151720Z 1518/1618 09006KT P6SM SKC FM160200 13004KT P6SM SCT250 FM160900 00000KT P6SM BKN040 FM161200 00000KT 6SM -SHRA OVC015 FM161400 18005KT 5SM -SHRA OVC020